createdAt,value
2023-04-22T00:01:57.777Z,51.17
2023-04-22T00:04:25.145Z,44.53
2023-04-22T00:06:51.727Z,52.67
2023-04-22T00:09:18.164Z,41.75
2023-04-22T00:11:44.638Z,111.00
2023-04-22T00:14:11.065Z,41.08
2023-04-22T00:16:37.660Z,56.20
2023-04-22T00:19:04.665Z,52.70
2023-04-22T00:21:31.240Z,56.05
2023-04-22T00:23:57.791Z,56.20
2023-04-22T00:26:24.389Z,50.90
2023-04-22T00:28:50.844Z,60.25
2023-04-22T00:31:17.307Z,67.22
2023-04-22T00:33:43.776Z,76.30
2023-04-22T00:36:10.210Z,55.42
2023-04-22T00:38:36.681Z,60.13
2023-04-22T00:41:03.148Z,47.35
2023-04-22T00:43:29.663Z,46.65
2023-04-22T00:45:57.046Z,73.20
2023-04-22T00:48:25.685Z,78.45
2023-04-22T00:50:53.897Z,43.45
2023-04-22T00:53:20.343Z,43.30
2023-04-22T00:55:46.815Z,36.28
2023-04-22T00:58:13.387Z,39.50
2023-04-22T01:00:39.894Z,71.47
2023-04-22T01:03:07.490Z,30.88
2023-04-22T01:05:34.510Z,31.25
2023-04-22T01:08:01.430Z,30.10
2023-04-22T01:10:27.882Z,24.42
2023-04-22T01:12:54.301Z,33.53
2023-04-22T01:15:20.709Z,31.33
2023-04-22T01:17:47.803Z,36.90
2023-04-22T01:20:14.459Z,27.65
2023-04-22T01:22:41.651Z,30.45
2023-04-22T01:25:09.190Z,28.02
2023-04-22T01:27:36.196Z,30.05
2023-04-22T01:30:03.138Z,32.00
2023-04-22T01:32:31.117Z,27.13
2023-04-22T01:34:58.041Z,35.28
2023-04-22T01:37:24.737Z,23.33
2023-04-22T01:39:51.653Z,22.83
2023-04-22T01:42:18.330Z,32.35
2023-04-22T01:44:44.953Z,25.48
2023-04-22T01:47:11.591Z,28.60
2023-04-22T01:49:38.247Z,23.83
2023-04-22T01:52:04.898Z,28.13
2023-04-22T01:54:31.845Z,37.10
2023-04-22T01:56:58.533Z,25.00
2023-04-22T01:59:25.172Z,22.33
2023-04-22T02:01:51.644Z,24.60
2023-04-22T02:04:18.458Z,26.38
2023-04-22T02:06:44.871Z,21.10
2023-04-22T02:09:11.437Z,23.75
2023-04-22T02:11:38.452Z,19.13
2023-04-22T02:14:04.907Z,33.15
2023-04-22T02:16:31.442Z,21.40
2023-04-22T02:18:58.041Z,18.85
2023-04-22T02:21:24.551Z,19.33
2023-04-22T02:23:50.992Z,21.20
2023-04-22T02:26:17.425Z,22.00
2023-04-22T02:28:43.921Z,21.70
2023-04-22T02:31:10.402Z,19.77
2023-04-22T02:33:39.032Z,24.23
2023-04-22T02:36:08.622Z,17.70
2023-04-22T02:38:35.077Z,26.30
2023-04-22T02:41:01.522Z,16.30
2023-04-22T02:43:28.310Z,16.67
2023-04-22T02:45:54.780Z,29.98
2023-04-22T02:48:21.320Z,17.75
2023-04-22T02:50:47.815Z,19.88
2023-04-22T02:53:14.298Z,19.33
2023-04-22T02:55:43.839Z,19.95
2023-04-22T02:58:10.637Z,22.25
2023-04-22T03:00:37.172Z,16.00
2023-04-22T03:03:03.950Z,21.00
2023-04-22T03:05:33.582Z,15.15
2023-04-22T03:08:01.569Z,23.10
2023-04-22T03:10:29.235Z,17.48
2023-04-22T03:12:55.710Z,20.25
2023-04-22T03:15:22.259Z,14.98
2023-04-22T03:17:49.253Z,14.98
2023-04-22T03:20:16.439Z,18.63
2023-04-22T03:22:42.948Z,22.17
2023-04-22T03:25:12.008Z,17.52
2023-04-22T03:27:38.684Z,16.48
2023-04-22T03:30:06.005Z,15.60
2023-04-22T03:32:33.636Z,16.60
2023-04-22T03:35:14.049Z,17.30
2023-04-22T03:37:40.915Z,22.48
2023-04-22T03:40:09.643Z,16.60
2023-04-22T03:42:37.115Z,25.27
2023-04-22T03:45:03.724Z,28.27
2023-04-22T03:47:34.888Z,20.55
2023-04-22T03:50:09.368Z,20.30
2023-04-22T03:52:35.867Z,21.25
2023-04-22T03:55:02.453Z,24.75
2023-04-22T03:57:29.967Z,24.77
2023-04-22T03:59:57.864Z,26.10
2023-04-22T04:02:24.481Z,22.80
2023-04-22T04:04:51.704Z,28.40
2023-04-22T04:07:18.776Z,26.80
2023-04-22T04:09:45.257Z,27.23
2023-04-22T04:12:12.570Z,26.15
2023-04-22T04:14:42.867Z,28.40
2023-04-22T04:17:14.112Z,24.35
2023-04-22T04:19:41.322Z,15.73
2023-04-22T04:22:08.709Z,22.08
2023-04-22T04:24:42.044Z,17.15
2023-04-22T04:27:15.165Z,20.95
2023-04-22T04:29:48.167Z,18.52
2023-04-22T04:32:21.834Z,21.67
2023-04-22T04:34:48.728Z,15.05
2023-04-22T04:37:17.039Z,20.67
2023-04-22T04:40:07.698Z,27.88
2023-04-22T04:42:49.148Z,15.25
2023-04-22T04:45:22.327Z,12.55
2023-04-22T04:47:55.404Z,19.40
2023-04-22T04:50:30.396Z,13.00
2023-04-22T04:53:01.490Z,12.85
2023-04-22T04:55:34.214Z,16.95
2023-04-22T04:58:04.761Z,17.15
2023-04-22T05:00:31.198Z,16.08
2023-04-22T05:02:58.012Z,13.85
2023-04-22T05:05:24.603Z,16.48
2023-04-22T05:07:53.649Z,12.55
2023-04-22T05:10:21.403Z,13.05
2023-04-22T05:12:48.056Z,12.73
2023-04-22T05:15:20.219Z,15.20
2023-04-22T05:17:46.692Z,13.43
2023-04-22T05:20:13.295Z,11.57
2023-04-22T05:22:43.130Z,15.80
2023-04-22T05:25:10.099Z,13.52
2023-04-22T05:27:38.977Z,13.57
2023-04-22T05:30:06.314Z,12.20
2023-04-22T05:32:33.998Z,16.20
2023-04-22T05:35:00.536Z,21.65
2023-04-22T05:37:27.064Z,15.20
2023-04-22T05:39:53.648Z,12.20
2023-04-22T05:42:20.702Z,15.15
2023-04-22T05:44:47.153Z,12.90
2023-04-22T05:47:13.929Z,13.02
2023-04-22T05:49:40.697Z,11.80
2023-04-22T05:52:16.621Z,13.48
2023-04-22T05:54:54.967Z,13.57
2023-04-22T05:57:22.123Z,10.55
2023-04-22T05:59:48.705Z,11.52
2023-04-22T06:02:16.202Z,8.65
2023-04-22T06:04:43.191Z,10.48
2023-04-22T06:07:10.039Z,8.70
2023-04-22T06:09:39.381Z,10.93
2023-04-22T06:12:07.892Z,11.20
2023-04-22T06:14:35.352Z,11.65
2023-04-22T06:17:01.900Z,8.70
2023-04-22T06:19:28.431Z,9.35
2023-04-22T06:21:54.910Z,10.82
2023-04-22T06:24:23.225Z,10.23
2023-04-22T06:26:49.669Z,8.75
2023-04-22T06:29:16.174Z,9.48
2023-04-22T06:31:42.707Z,8.93
2023-04-22T06:34:09.343Z,7.88
2023-04-22T06:36:38.740Z,9.05
2023-04-22T06:39:06.234Z,8.82
2023-04-22T06:41:50.975Z,8.95
2023-04-22T06:44:49.556Z,9.82
2023-04-22T06:47:28.734Z,8.02
2023-04-22T06:50:09.967Z,5.90
2023-04-22T06:52:44.423Z,6.30
2023-04-22T06:55:11.372Z,6.35
2023-04-22T06:57:38.257Z,7.60
2023-04-22T07:00:05.471Z,5.50
2023-04-22T07:02:37.824Z,6.28
2023-04-22T07:05:04.898Z,6.28
2023-04-22T07:07:31.486Z,6.85
2023-04-22T07:09:57.970Z,6.28
2023-04-22T07:12:28.810Z,6.32
2023-04-22T07:14:55.275Z,5.40
2023-04-22T07:17:22.642Z,4.70
2023-04-22T07:19:49.426Z,4.28
2023-04-22T07:22:15.850Z,3.35
2023-04-22T07:24:42.307Z,5.47
2023-04-22T07:27:08.814Z,4.22
2023-04-22T07:29:35.336Z,3.47
2023-04-22T07:32:01.858Z,4.05
2023-04-22T07:34:28.305Z,3.67
2023-04-22T07:36:54.737Z,8.20
2023-04-22T07:39:21.468Z,4.32
2023-04-22T07:41:47.966Z,4.22
2023-04-22T07:44:18.340Z,3.80
2023-04-22T07:46:44.800Z,5.18
2023-04-22T07:49:13.883Z,3.80
2023-04-22T07:51:40.993Z,4.47
2023-04-22T07:54:07.653Z,4.45
2023-04-22T07:56:34.594Z,4.78
2023-04-22T07:59:01.130Z,3.47
2023-04-22T08:01:27.584Z,3.78
2023-04-22T08:03:54.254Z,4.18
2023-04-22T08:06:20.785Z,4.03
2023-04-22T08:08:47.271Z,3.38
2023-04-22T08:11:13.750Z,4.10
2023-04-22T08:13:40.193Z,3.92
2023-04-22T08:16:07.479Z,3.28
2023-04-22T08:18:34.104Z,3.78
2023-04-22T08:21:02.121Z,4.32
2023-04-22T08:23:28.555Z,3.38
2023-04-22T08:25:55.095Z,3.10
2023-04-22T08:28:21.518Z,3.05
2023-04-22T08:30:48.033Z,2.67
2023-04-22T08:33:14.503Z,3.70
2023-04-22T08:35:41.082Z,4.57
2023-04-22T08:38:07.544Z,3.15
2023-04-22T08:40:34.649Z,2.60
2023-04-22T08:43:01.142Z,3.35
2023-04-22T08:45:27.819Z,2.53
2023-04-22T08:47:54.521Z,2.55
2023-04-22T08:50:23.443Z,4.10
2023-04-22T08:52:49.959Z,3.38
2023-04-22T08:55:16.552Z,4.90
2023-04-22T08:57:43.048Z,3.00
2023-04-22T09:00:09.990Z,3.25
2023-04-22T09:02:37.157Z,3.35
2023-04-22T09:05:06.072Z,3.53
2023-04-22T09:07:32.664Z,2.63
2023-04-22T09:09:59.429Z,2.40
2023-04-22T09:12:26.058Z,3.63
2023-04-22T09:14:52.976Z,2.72
2023-04-22T09:17:29.496Z,2.95
2023-04-22T09:20:06.095Z,3.72
2023-04-22T09:22:42.643Z,2.65
2023-04-22T09:25:19.490Z,3.10
2023-04-22T09:27:50.438Z,3.90
2023-04-22T09:30:19.023Z,3.85
2023-04-22T09:32:52.683Z,3.10
2023-04-22T09:35:23.596Z,2.80
2023-04-22T09:37:53.152Z,3.17
2023-04-22T09:40:20.179Z,2.92
2023-04-22T09:42:53.559Z,3.25
2023-04-22T09:45:30.753Z,4.25
2023-04-22T09:47:58.174Z,4.03
2023-04-22T09:50:25.905Z,4.25
2023-04-22T09:52:56.222Z,3.00
2023-04-22T09:55:26.781Z,2.35
2023-04-22T09:57:57.136Z,4.18
2023-04-22T10:00:25.388Z,3.45
2023-04-22T10:02:52.025Z,9.57
2023-04-22T10:05:18.538Z,2.60
2023-04-22T10:07:45.198Z,3.08
2023-04-22T10:10:12.099Z,2.92
2023-04-22T10:12:38.627Z,3.17
2023-04-22T10:15:06.613Z,2.30
2023-04-22T10:17:37.490Z,4.53
2023-04-22T10:20:06.588Z,3.97
2023-04-22T10:22:33.928Z,3.80
2023-04-22T10:25:00.680Z,2.97
2023-04-22T10:27:27.129Z,2.83
2023-04-22T10:29:56.502Z,2.50
2023-04-22T10:32:23.186Z,4.68
2023-04-22T10:34:50.079Z,3.85
2023-04-22T10:37:19.946Z,2.05
2023-04-22T10:40:18.767Z,4.43
2023-04-22T10:42:52.612Z,2.67
2023-04-22T10:45:23.965Z,2.13
2023-04-22T10:47:50.585Z,2.92
2023-04-22T10:50:20.671Z,3.42
2023-04-22T10:52:48.648Z,2.38
2023-04-22T10:55:15.419Z,2.40
2023-04-22T10:57:46.016Z,4.03
2023-04-22T11:00:45.766Z,2.72
2023-04-22T11:03:24.789Z,4.30
2023-04-22T11:06:11.368Z,3.22
2023-04-22T11:08:37.856Z,4.00
2023-04-22T11:11:11.054Z,5.28
2023-04-22T11:13:37.705Z,4.20
2023-04-22T11:16:08.182Z,3.88
2023-04-22T11:18:34.720Z,4.13
2023-04-22T11:21:09.195Z,4.10
2023-04-22T11:23:36.701Z,6.18
2023-04-22T11:26:06.500Z,6.05
2023-04-22T11:28:33.219Z,4.25
2023-04-22T11:31:06.706Z,2.88
2023-04-22T11:33:34.204Z,6.45
2023-04-22T11:36:00.985Z,5.57
2023-04-22T11:38:27.540Z,3.65
2023-04-22T11:40:55.077Z,3.40
2023-04-22T11:43:21.549Z,4.03
2023-04-22T11:45:48.022Z,4.75
2023-04-22T11:48:14.611Z,3.03
2023-04-22T11:50:42.417Z,5.35
2023-04-22T11:53:15.037Z,4.13
2023-04-22T11:55:42.030Z,2.17
2023-04-22T11:58:09.484Z,3.80
2023-04-22T12:00:37.458Z,3.25
2023-04-22T12:03:07.919Z,3.65
2023-04-22T12:05:35.990Z,3.70
2023-04-22T12:08:12.926Z,5.05
2023-04-22T12:10:41.067Z,3.35
2023-04-22T12:13:07.613Z,2.95
2023-04-22T12:15:37.506Z,3.67
2023-04-22T12:18:03.924Z,3.58
2023-04-22T12:20:37.113Z,2.88
2023-04-22T12:23:04.361Z,2.65
2023-04-22T12:25:33.702Z,5.07
2023-04-22T12:28:01.103Z,3.47
2023-04-22T12:30:27.621Z,5.53
2023-04-22T12:32:54.161Z,5.50
2023-04-22T12:35:21.192Z,2.63
2023-04-22T12:37:48.126Z,4.68
2023-04-22T12:40:15.672Z,5.55
2023-04-22T12:42:42.205Z,5.70
2023-04-22T12:45:09.409Z,3.30
2023-04-22T12:47:36.308Z,3.20
2023-04-22T12:50:06.409Z,2.42
2023-04-22T12:52:34.188Z,3.75
2023-04-22T12:55:00.862Z,3.40
2023-04-22T12:57:27.395Z,3.97
2023-04-22T12:59:54.283Z,5.35
2023-04-22T13:02:20.790Z,3.33
2023-04-22T13:04:47.225Z,4.15
2023-04-22T13:07:13.680Z,3.78
2023-04-22T13:09:40.308Z,9.45
2023-04-22T13:12:07.095Z,3.83
2023-04-22T13:14:33.585Z,5.80
2023-04-22T13:17:00.133Z,3.28
2023-04-22T13:19:27.036Z,4.22
2023-04-22T13:21:53.522Z,4.32
2023-04-22T13:24:20.681Z,3.35
2023-04-22T13:26:47.151Z,2.33
2023-04-22T13:29:14.197Z,2.78
2023-04-22T13:31:44.558Z,2.78
2023-04-22T13:34:11.495Z,3.13
2023-04-22T13:36:38.119Z,2.63
2023-04-22T13:39:04.658Z,2.05
2023-04-22T13:41:31.135Z,2.58
2023-04-22T13:43:57.733Z,3.67
2023-04-22T13:46:24.908Z,2.67
2023-04-22T13:48:51.644Z,3.60
2023-04-22T13:51:18.138Z,2.78
2023-04-22T13:53:45.094Z,2.03
2023-04-22T13:56:12.711Z,2.70
2023-04-22T13:58:40.547Z,3.13
2023-04-22T14:01:07.550Z,4.68
2023-04-22T14:03:34.492Z,4.40
2023-04-22T14:06:01.220Z,3.53
2023-04-22T14:08:27.654Z,2.95
2023-04-22T14:10:54.432Z,2.70
2023-04-22T14:13:21.815Z,2.58
2023-04-22T14:15:50.446Z,3.05
2023-04-22T14:18:16.935Z,3.20
2023-04-22T14:20:45.059Z,2.70
2023-04-22T14:23:11.831Z,3.00
2023-04-22T14:25:38.433Z,3.72
2023-04-22T14:28:05.466Z,2.80
2023-04-22T14:30:31.934Z,4.22
2023-04-22T14:32:58.475Z,4.07
2023-04-22T14:35:24.990Z,15.27
2023-04-22T14:37:51.524Z,6.43
2023-04-22T14:40:19.944Z,2.33
2023-04-22T14:42:46.996Z,2.63
2023-04-22T14:45:14.641Z,4.38
2023-04-22T14:47:41.240Z,2.78
2023-04-22T14:50:07.846Z,2.47
2023-04-22T14:52:34.432Z,2.90
2023-04-22T14:55:11.933Z,3.80
2023-04-22T14:57:46.627Z,3.03
2023-04-22T15:00:13.788Z,3.33
2023-04-22T15:02:40.570Z,2.75
2023-04-22T15:05:07.231Z,2.95
2023-04-22T15:07:33.689Z,3.53
2023-04-22T15:10:00.729Z,4.70
2023-04-22T15:12:27.262Z,3.10
2023-04-22T15:14:53.688Z,2.10
2023-04-22T15:17:20.812Z,4.05
2023-04-22T15:19:47.414Z,2.13
2023-04-22T15:22:13.872Z,1.65
2023-04-22T15:24:40.996Z,3.35
2023-04-22T15:27:07.587Z,3.80
2023-04-22T15:29:34.112Z,2.90
2023-04-22T15:32:02.122Z,3.25
2023-04-22T15:34:28.711Z,1.90
2023-04-22T15:36:55.164Z,1.55
2023-04-22T15:39:22.880Z,1.77
2023-04-22T15:41:49.546Z,2.50
2023-04-22T15:44:16.808Z,1.70
2023-04-22T15:46:45.680Z,2.80
2023-04-22T15:49:12.936Z,2.67
2023-04-22T15:51:39.400Z,3.47
2023-04-22T15:54:05.812Z,2.38
2023-04-22T15:56:34.493Z,3.60
2023-04-22T15:59:00.972Z,3.13
2023-04-22T16:01:27.477Z,1.88
2023-04-22T16:03:54.055Z,2.75
2023-04-22T16:06:20.642Z,2.35
2023-04-22T16:08:47.184Z,3.20
2023-04-22T16:11:14.287Z,2.53
2023-04-22T16:13:41.127Z,2.55
2023-04-22T16:16:08.152Z,3.63
2023-04-22T16:18:34.638Z,2.83
2023-04-22T16:21:01.354Z,3.47
2023-04-22T16:23:27.999Z,4.82
2023-04-22T16:25:54.806Z,3.47
2023-04-22T16:28:21.685Z,3.83
2023-04-22T16:30:48.371Z,3.72
2023-04-22T16:33:15.677Z,4.00
2023-04-22T16:35:42.182Z,6.85
2023-04-22T16:38:09.932Z,5.35
2023-04-22T16:40:37.770Z,6.68
2023-04-22T16:43:05.230Z,9.32
2023-04-22T16:45:31.979Z,6.53
2023-04-22T16:47:58.482Z,9.45
2023-04-22T16:50:24.968Z,10.30
2023-04-22T16:52:51.695Z,11.02
2023-04-22T16:55:18.285Z,9.63
2023-04-22T16:57:47.593Z,11.35
2023-04-22T17:00:14.874Z,12.90
2023-04-22T17:02:41.740Z,9.93
2023-04-22T17:05:08.694Z,28.05
2023-04-22T17:07:35.624Z,12.30
2023-04-22T17:10:02.135Z,12.77
2023-04-22T17:12:28.614Z,34.13
2023-04-22T17:14:55.162Z,32.90
2023-04-22T17:17:21.713Z,52.53
2023-04-22T17:19:48.297Z,66.43
2023-04-22T17:22:14.846Z,28.20
2023-04-22T17:24:41.399Z,24.45
2023-04-22T17:27:08.095Z,28.92
2023-04-22T17:29:34.984Z,19.10
2023-04-22T17:32:01.768Z,33.88
2023-04-22T17:34:28.354Z,44.97
2023-04-22T17:36:54.865Z,31.98
2023-04-22T17:39:21.451Z,25.17
2023-04-22T17:41:48.065Z,20.10
2023-04-22T17:44:14.510Z,24.45
2023-04-22T17:46:41.607Z,21.13
2023-04-22T17:49:08.616Z,14.93
2023-04-22T17:51:35.288Z,23.90
2023-04-22T17:54:03.171Z,106.63
2023-04-22T17:56:29.631Z,44.20
2023-04-22T17:58:56.155Z,144.00
2023-04-22T18:01:22.729Z,277.80
2023-04-22T18:03:49.474Z,157.15
2023-04-22T18:06:16.190Z,82.20
2023-04-22T18:08:42.633Z,64.50
2023-04-22T18:11:09.681Z,39.40
2023-04-22T18:13:36.691Z,24.52
2023-04-22T18:16:03.306Z,36.85
2023-04-22T18:18:29.805Z,60.53
2023-04-22T18:20:56.624Z,110.90
2023-04-22T18:23:23.275Z,73.07
2023-04-22T18:25:50.107Z,29.83
2023-04-22T18:28:16.624Z,42.60
2023-04-22T18:30:44.243Z,80.50
2023-04-22T18:33:10.772Z,53.38
2023-04-22T18:35:37.340Z,35.70
2023-04-22T18:38:03.935Z,105.47
2023-04-22T18:40:30.506Z,69.50
2023-04-22T18:42:57.627Z,40.75
2023-04-22T18:45:24.138Z,52.50
2023-04-22T18:47:50.669Z,59.42
2023-04-22T18:50:17.337Z,36.75
2023-04-22T18:52:43.827Z,60.72
2023-04-22T18:55:10.688Z,68.38
2023-04-22T18:57:37.646Z,73.38
2023-04-22T19:00:06.190Z,39.90
2023-04-22T19:04:59.412Z,29.52
2023-04-22T19:07:25.948Z,22.77
2023-04-22T19:09:52.610Z,21.50
2023-04-22T19:12:19.562Z,24.38
2023-04-22T19:14:47.795Z,11.68
2023-04-22T19:17:14.274Z,13.73
2023-04-22T19:19:41.038Z,13.52
2023-04-22T19:22:08.113Z,11.68
2023-04-22T19:24:35.309Z,16.13
2023-04-22T19:27:02.766Z,14.80
2023-04-22T19:29:29.577Z,22.15
2023-04-22T19:31:57.270Z,23.40
2023-04-22T19:34:23.877Z,25.58
2023-04-22T19:36:51.255Z,27.70
2023-04-22T19:39:18.056Z,29.10
2023-04-22T19:41:44.513Z,29.80
2023-04-22T19:44:11.011Z,32.67
2023-04-22T19:46:38.337Z,34.72
2023-04-22T19:49:05.432Z,36.03
2023-04-22T19:51:32.552Z,47.67
2023-04-22T19:53:59.102Z,37.83
2023-04-22T19:56:25.627Z,33.22
2023-04-22T19:58:52.189Z,29.40
2023-04-22T20:01:18.823Z,41.45
2023-04-22T20:03:47.016Z,36.83
2023-04-22T20:06:15.040Z,34.38
2023-04-22T20:08:42.356Z,23.48
2023-04-22T20:11:09.400Z,44.25
2023-04-22T20:13:36.483Z,55.90
2023-04-22T20:16:03.675Z,49.13
2023-04-22T20:18:30.463Z,40.55
2023-04-22T20:20:58.600Z,42.53
2023-04-22T20:23:26.542Z,53.45
2023-04-22T20:25:55.825Z,52.92
2023-04-22T20:28:22.734Z,47.72
2023-04-22T20:30:51.975Z,42.30
2023-04-22T20:33:19.667Z,72.43
2023-04-22T20:35:48.934Z,35.50
2023-04-22T20:38:15.761Z,65.40
2023-04-22T20:40:43.970Z,51.33
2023-04-22T20:43:10.703Z,52.83
2023-04-22T20:45:38.061Z,41.28
2023-04-22T20:48:05.196Z,47.95
2023-04-22T20:50:33.466Z,40.25
2023-04-22T20:53:00.965Z,38.83
2023-04-22T20:55:27.432Z,66.03
2023-04-22T20:57:53.867Z,37.83
2023-04-22T21:00:20.628Z,27.33
2023-04-22T21:02:47.489Z,24.92
2023-04-22T21:05:14.163Z,35.50
2023-04-22T21:07:41.348Z,30.95
2023-04-22T21:10:08.234Z,29.60
2023-04-22T21:12:34.860Z,27.60
2023-04-22T21:15:01.386Z,21.85
2023-04-22T21:17:30.739Z,30.42
2023-04-22T21:19:58.143Z,39.00
2023-04-22T21:22:24.706Z,27.73
2023-04-22T21:24:51.916Z,35.97
2023-04-22T21:27:18.806Z,36.05
2023-04-22T21:29:46.574Z,53.50
2023-04-22T21:32:13.530Z,49.42
2023-04-22T21:34:40.662Z,46.53
2023-04-22T21:37:08.109Z,38.20
2023-04-22T21:39:34.863Z,52.60
2023-04-22T21:42:02.797Z,51.55
2023-04-22T21:44:29.223Z,46.47
2023-04-22T21:46:55.682Z,68.50
2023-04-22T21:49:23.084Z,60.47
2023-04-22T21:51:49.783Z,63.75
2023-04-22T21:54:16.607Z,45.80
2023-04-22T21:56:43.092Z,46.55
2023-04-22T21:59:09.668Z,65.68
2023-04-22T22:01:36.188Z,39.35
2023-04-22T22:04:03.179Z,72.88
2023-04-22T22:06:30.090Z,42.83
2023-04-22T22:08:56.553Z,65.35
2023-04-22T22:13:52.335Z,46.20
2023-04-22T22:16:19.133Z,51.15
2023-04-22T22:18:45.792Z,76.85
2023-04-22T22:21:12.820Z,70.07
2023-04-22T22:23:39.288Z,63.47
2023-04-22T22:26:06.053Z,53.40
2023-04-22T22:28:32.588Z,68.20
2023-04-22T22:31:02.316Z,68.28
2023-04-22T22:33:29.137Z,68.65
2023-04-22T22:35:55.937Z,61.80
2023-04-22T22:38:22.542Z,78.82
2023-04-22T22:40:49.049Z,151.23
2023-04-22T22:43:15.599Z,64.85
2023-04-22T22:45:42.248Z,88.82
2023-04-22T22:48:08.731Z,110.47
2023-04-22T22:50:35.230Z,71.43
2023-04-22T22:53:01.655Z,105.25
2023-04-22T22:55:28.122Z,84.25
2023-04-22T22:57:54.584Z,81.22
2023-04-22T23:00:21.068Z,82.28
2023-04-22T23:02:48.013Z,72.80
2023-04-22T23:05:14.518Z,100.43
2023-04-22T23:07:41.455Z,87.80
2023-04-22T23:10:08.285Z,94.68
2023-04-22T23:12:35.328Z,67.45
2023-04-22T23:15:01.805Z,77.13
2023-04-22T23:17:28.513Z,90.07
2023-04-22T23:19:55.541Z,86.50
2023-04-22T23:22:22.164Z,105.97
2023-04-22T23:24:48.773Z,94.43
2023-04-22T23:27:16.161Z,78.07
2023-04-22T23:29:42.864Z,69.75
2023-04-22T23:32:09.936Z,111.43
2023-04-22T23:34:39.179Z,88.70
2023-04-22T23:37:06.155Z,109.72
2023-04-22T23:39:32.724Z,95.53
2023-04-22T23:41:59.165Z,85.28
2023-04-22T23:44:25.579Z,73.95
2023-04-22T23:46:52.004Z,84.93
2023-04-22T23:49:18.410Z,79.88
2023-04-22T23:51:45.089Z,66.13
2023-04-22T23:54:11.545Z,169.80
2023-04-22T23:56:38.150Z,75.57
2023-04-22T23:59:04.741Z,65.35
